Air Navigation Services of Czech Republic
Airport: LKLN Updated:  20.02.2017 20:06:06  UTC
 METAR LKLN 20.02. 20:00 ...
METAR LKLN 202000Z AUTO 24010KT 9999 -RA OVC019 06/05 Q1015=